Time;durP1;ratioP1;P1;durP2;ratioP2;P2;SDS_P1;SDS_P2;PMS_P1;PMS_P2;Temp;Humidity;BMP_temperature;BMP_pressure;BME280_temperature;BME280_humidity;BME280_pressure;Samples;Min_cycle;Max_cycle;Signal;HPM_P1;HPM_P2
2024/03/08 00:00:48;;;;;;;7.13;6.43;;;;;;;19.41;49.55;97483.19;5056917;28;20200;-35
2024/03/08 00:03:14;;;;;;;7.57;6.87;;;;;;;19.43;50.26;97484.13;5057073;28;20216;-27
2024/03/08 00:05:41;;;;;;;6.80;6.17;;;;;;;19.44;49.41;97479.88;5056799;28;20196;-26
2024/03/08 00:08:09;;;;;;;7.27;6.57;;;;;;;19.45;49.24;97484.16;5056884;28;20304;-27
2024/03/08 00:10:38;;;;;;;6.83;6.23;;;;;;;19.46;49.23;97483.34;5039099;28;20237;-34
2024/03/08 00:13:06;;;;;;;8.10;6.90;;;;;;;19.45;49.24;97479.91;5057629;28;20196;-26
2024/03/08 00:15:33;;;;;;;7.80;6.97;;;;;;;19.47;49.30;97474.88;5057632;28;20557;-27
2024/03/08 00:17:59;;;;;;;7.80;7.10;;;;;;;19.47;49.21;97468.09;5056609;28;20278;-27
2024/03/08 00:20:26;;;;;;;7.77;7.00;;;;;;;19.48;49.22;97472.38;5057158;28;20204;-26
2024/03/08 00:22:53;;;;;;;7.47;6.73;;;;;;;19.49;49.14;97471.59;5056581;28;20652;-31
2024/03/08 00:25:19;;;;;;;7.73;6.97;;;;;;;19.42;49.27;97472.16;5056849;28;20197;-27
2024/03/08 00:27:49;;;;;;;7.13;6.43;;;;;;;19.39;49.67;97472.06;5055984;28;20776;-27
2024/03/08 00:30:16;;;;;;;7.50;6.77;;;;;;;19.38;49.50;97475.44;5057078;28;20221;-27
2024/03/08 00:32:42;;;;;;;7.03;6.00;;;;;;;19.37;49.46;97460.97;5056598;28;20240;-27
2024/03/08 00:35:09;;;;;;;7.33;6.63;;;;;;;19.37;49.52;97463.50;5056656;28;20203;-27
2024/03/08 00:37:36;;;;;;;7.47;6.67;;;;;;;19.38;49.66;97461.81;5055957;28;20217;-26
2024/03/08 00:40:03;;;;;;;6.50;6.00;;;;;;;19.40;49.46;97462.75;5056645;28;20197;-26
2024/03/08 00:42:30;;;;;;;7.23;6.53;;;;;;;19.43;48.98;97455.19;5056750;28;20212;-26
2024/03/08 00:44:57;;;;;;;7.40;6.70;;;;;;;19.43;49.30;97456.09;5056288;28;20197;-28
2024/03/08 00:47:24;;;;;;;6.90;6.30;;;;;;;19.43;49.54;97448.44;5056533;28;20921;-26
2024/03/08 00:49:51;;;;;;;7.20;6.50;;;;;;;19.44;49.20;97450.16;5056597;28;20221;-26
2024/03/08 00:52:18;;;;;;;7.50;6.80;;;;;;;19.45;49.08;97441.69;5053117;28;20232;-36
2024/03/08 00:54:45;;;;;;;7.47;6.77;;;;;;;19.47;48.98;97450.28;5056150;28;20232;-27
2024/03/08 00:57:11;;;;;;;7.73;6.93;;;;;;;19.46;49.07;97446.00;5055845;28;20197;-26
2024/03/08 00:59:38;;;;;;;7.13;6.43;;;;;;;19.48;48.75;97449.44;5050512;28;20201;-27
2024/03/08 01:02:05;;;;;;;7.50;6.80;;;;;;;19.47;49.15;97436.66;5055798;28;20197;-27
2024/03/08 01:04:33;;;;;;;7.87;7.07;;;;;;;19.44;49.24;97432.31;5051217;28;20286;-28
2024/03/08 01:06:59;;;;;;;7.23;6.53;;;;;;;19.40;49.32;97432.16;5054060;28;20670;-26
2024/03/08 01:09:26;;;;;;;7.13;6.53;;;;;;;19.38;49.42;97423.56;5055507;28;20216;-26
2024/03/08 01:11:54;;;;;;;7.77;7.07;;;;;;;19.36;49.37;97418.44;5056153;28;20223;-26
2024/03/08 01:14:25;;;;;;;7.60;6.90;;;;;;;19.37;49.38;97419.31;5053297;28;20198;-28
2024/03/08 01:16:52;;;;;;;7.73;6.57;;;;;;;19.37;49.26;97414.22;5040751;28;20254;-30
2024/03/08 01:19:19;;;;;;;7.10;6.40;;;;;;;19.38;49.29;97411.72;5053645;28;20221;-29
2024/03/08 01:21:46;;;;;;;7.03;6.33;;;;;;;19.41;49.20;97408.41;5056218;28;20243;-27
2024/03/08 01:24:12;;;;;;;7.40;6.70;;;;;;;19.42;49.12;97403.34;5055620;28;20201;-27
2024/03/08 01:26:39;;;;;;;7.90;7.20;;;;;;;19.43;49.20;97400.00;5053296;28;20208;-27
2024/03/08 01:29:07;;;;;;;7.40;6.70;;;;;;;19.45;48.93;97400.06;5055355;28;20232;-27
2024/03/08 01:31:36;;;;;;;7.40;6.70;;;;;;;19.45;48.90;97390.72;5054855;28;20284;-27
2024/03/08 01:34:03;;;;;;;7.17;6.47;;;;;;;19.46;48.99;97397.56;5055932;28;20232;-25
2024/03/08 01:36:29;;;;;;;7.77;7.07;;;;;;;19.47;49.14;97395.88;5053139;28;20205;-36
2024/03/08 01:38:56;;;;;;;7.67;6.97;;;;;;;19.47;48.93;97395.88;5054840;28;20734;-31
2024/03/08 01:41:23;;;;;;;8.43;6.30;;;;;;;19.49;48.74;97390.03;5055266;28;20287;-26
2024/03/08 01:43:50;;;;;;;7.47;6.77;;;;;;;19.45;48.93;97387.31;5055501;28;20698;-35
2024/03/08 01:46:18;;;;;;;7.00;6.37;;;;;;;19.40;49.06;97387.16;5053297;28;20259;-28
2024/03/08 01:48:45;;;;;;;7.70;6.73;;;;;;;19.38;48.89;97382.81;5051644;28;20286;-27
2024/03/08 01:51:12;;;;;;;7.00;6.13;;;;;;;19.37;49.18;97386.19;5048553;28;20299;-26
2024/03/08 01:53:39;;;;;;;6.67;6.07;;;;;;;19.35;49.44;97380.16;5054957;28;20212;-28
2024/03/08 01:56:05;;;;;;;7.17;6.47;;;;;;;19.34;49.35;97370.78;5043056;28;20197;-26
2024/03/08 01:58:32;;;;;;;6.50;5.90;;;;;;;19.38;49.84;97367.50;5050260;28;20228;-26
2024/03/08 02:00:59;;;;;;;7.67;6.97;;;;;;;19.38;48.68;97368.41;5053074;28;20197;-27
2024/03/08 02:03:26;;;;;;;6.90;6.20;;;;;;;19.42;48.75;97371.94;5054587;28;20205;-27
2024/03/08 02:05:52;;;;;;;6.90;6.30;;;;;;;19.41;49.04;97363.41;5054582;28;20208;-27
2024/03/08 02:08:22;;;;;;;7.07;6.37;;;;;;;19.44;48.73;97360.09;5043702;28;20224;-27
2024/03/08 02:10:49;;;;;;;7.13;6.43;;;;;;;19.36;49.20;97349.63;5040388;28;20204;-34
2024/03/08 02:13:16;;;;;;;7.10;6.40;;;;;;;19.44;49.27;97358.41;5054705;28;20196;-27
2024/03/08 02:15:56;;;;;;;6.80;6.20;;;;;;;19.45;48.94;97349.94;5055022;28;20224;-27
2024/03/08 02:18:23;;;;;;;7.33;6.63;;;;;;;19.45;48.95;97346.56;5052244;28;20228;-27
2024/03/08 02:20:51;;;;;;;7.33;6.60;;;;;;;19.45;48.86;97342.28;5052456;28;20280;-33
2024/03/08 02:23:19;;;;;;;6.63;6.03;;;;;;;19.45;48.99;97349.09;5054525;28;20193;-26
2024/03/08 02:25:46;;;;;;;6.53;5.93;;;;;;;19.40;49.13;97343.84;5054580;28;20212;-27
2024/03/08 02:28:14;;;;;;;6.53;5.93;;;;;;;19.36;49.14;97341.13;5048476;28;20248;-26
2024/03/08 02:30:40;;;;;;;7.20;6.50;;;;;;;19.34;49.23;97335.09;5054330;28;20220;-26
2024/03/08 02:33:09;;;;;;;7.53;6.80;;;;;;;19.34;49.34;97340.22;5054480;28;20201;-26
2024/03/08 02:35:36;;;;;;;6.77;6.17;;;;;;;19.34;49.44;97346.19;5054109;28;20269;-28
2024/03/08 02:38:04;;;;;;;6.67;5.97;;;;;;;19.34;49.00;97337.66;5049002;28;20224;-30
2024/03/08 02:40:30;;;;;;;6.70;6.10;;;;;;;19.37;48.92;97336.09;5052925;28;20247;-27
2024/03/08 02:42:58;;;;;;;6.87;6.27;;;;;;;19.39;49.02;97331.91;5053899;28;20671;-26
2024/03/08 02:45:24;;;;;;;6.67;6.07;;;;;;;19.41;49.07;97332.81;5048682;28;20232;-31
2024/03/08 02:47:51;;;;;;;7.10;6.50;;;;;;;19.41;48.99;97332.81;5053828;28;20278;-27
2024/03/08 02:50:18;;;;;;;6.87;6.23;;;;;;;19.44;49.04;97339.69;5054104;28;20217;-26
2024/03/08 02:52:46;;;;;;;7.10;6.40;;;;;;;19.44;48.91;97332.06;5054555;28;20197;-26
2024/03/08 02:55:16;;;;;;;7.30;6.60;;;;;;;19.38;49.50;97314.00;5051669;28;20580;-28
2024/03/08 02:57:47;;;;;;;7.03;6.43;;;;;;;19.46;48.73;97325.34;5051883;28;20531;-26
2024/03/08 03:00:13;;;;;;;6.27;5.73;;;;;;;19.47;48.81;97329.59;5053659;28;20197;-27
2024/03/08 03:02:42;;;;;;;6.57;5.97;;;;;;;19.46;48.73;97331.31;5053874;28;20205;-27
2024/03/08 03:05:09;;;;;;;6.63;6.03;;;;;;;19.40;48.88;97331.09;5045575;28;20214;-26
2024/03/08 03:07:36;;;;;;;5.90;5.40;;;;;;;19.37;49.07;97318.25;5049789;28;20311;-27
2024/03/08 03:10:02;;;;;;;6.80;6.20;;;;;;;19.36;49.26;97329.25;5054724;28;20303;-28
2024/03/08 03:12:30;;;;;;;6.63;5.97;;;;;;;19.35;49.09;97326.63;5053697;28;20203;-26
2024/03/08 03:14:59;;;;;;;6.63;6.03;;;;;;;19.36;49.21;97323.28;5044463;28;20197;-28
2024/03/08 03:17:26;;;;;;;6.73;6.13;;;;;;;19.35;49.18;97309.69;5054549;28;20625;-27
2024/03/08 03:19:53;;;;;;;6.70;6.10;;;;;;;19.37;49.05;97314.81;5054222;28;20648;-26
2024/03/08 03:22:20;;;;;;;6.77;6.17;;;;;;;19.40;49.05;97315.81;5057663;28;20231;-26
2024/03/08 03:24:46;;;;;;;7.07;6.37;;;;;;;19.41;49.09;97311.56;5055232;28;20197;-27
2024/03/08 03:27:15;;;;;;;6.47;5.87;;;;;;;19.42;48.87;97305.66;5040007;28;20204;-36
2024/03/08 03:29:45;;;;;;;7.23;5.93;;;;;;;19.43;48.90;97300.63;5057657;28;20687;-26
2024/03/08 03:32:12;;;;;;;7.20;6.53;;;;;;;19.44;48.79;97294.69;5054193;28;20200;-37
2024/03/08 03:34:39;;;;;;;7.03;6.33;;;;;;;19.45;48.66;97295.59;5057809;28;20557;-26
2024/03/08 03:37:08;;;;;;;6.77;6.07;;;;;;;19.45;48.65;97285.38;5057590;28;20240;-26
2024/03/08 03:39:40;;;;;;;7.10;6.40;;;;;;;19.45;48.83;97293.88;5055669;28;20220;-35
2024/03/08 03:42:07;;;;;;;7.00;6.30;;;;;;;19.45;48.68;97286.22;5057026;28;20197;-33
2024/03/08 03:44:33;;;;;;;6.33;5.73;;;;;;;19.39;48.47;97286.03;5057992;28;20216;-28
2024/03/08 03:47:00;;;;;;;6.57;5.93;;;;;;;19.36;48.98;97280.81;5057456;28;20201;-26
2024/03/08 03:49:28;;;;;;;6.77;6.17;;;;;;;19.35;49.13;97288.41;5054646;28;20707;-28
2024/03/08 03:51:56;;;;;;;6.90;6.30;;;;;;;19.34;49.20;97289.25;5057349;28;20225;-35
2024/03/08 03:54:22;;;;;;;6.53;5.93;;;;;;;19.33;49.21;97293.47;5057140;28;20272;-26
2024/03/08 03:56:52;;;;;;;6.50;5.90;;;;;;;19.35;49.05;97285.88;5056484;28;20212;-25
2024/03/08 03:59:19;;;;;;;6.70;6.00;;;;;;;19.37;48.91;97284.25;5034085;28;22113;-28
2024/03/08 04:01:45;;;;;;;7.17;6.47;;;;;;;19.39;49.13;97282.63;5057518;28;20725;-35
2024/03/08 04:04:12;;;;;;;6.53;5.93;;;;;;;19.41;48.93;97279.31;5057035;28;20211;-26
2024/03/08 04:06:39;;;;;;;6.77;6.17;;;;;;;19.42;48.88;97278.47;5055401;28;20209;-25
2024/03/08 04:09:05;;;;;;;6.53;5.93;;;;;;;19.43;49.02;97276.81;5056607;28;20217;-27
2024/03/08 04:11:32;;;;;;;6.97;6.27;;;;;;;19.44;48.45;97283.63;5057406;28;20204;-27
2024/03/08 04:13:59;;;;;;;6.80;6.20;;;;;;;19.44;49.07;97287.06;5057471;28;20663;-26
2024/03/08 04:16:25;;;;;;;6.97;6.30;;;;;;;19.45;48.96;97300.69;5051227;28;20201;-25
2024/03/08 04:18:52;;;;;;;6.67;6.07;;;;;;;19.45;48.73;97290.47;5057036;28;20248;-27
2024/03/08 04:21:19;;;;;;;7.27;6.57;;;;;;;19.46;48.89;97294.75;5057089;28;20189;-26
2024/03/08 04:23:46;;;;;;;6.43;5.83;;;;;;;19.41;48.92;97302.25;5050480;28;20232;-26
2024/03/08 04:26:12;;;;;;;6.60;6.00;;;;;;;19.36;48.92;97296.13;5056492;28;20194;-29
2024/03/08 04:28:41;;;;;;;6.33;5.73;;;;;;;19.36;49.03;97293.56;5056628;28;20224;-27
2024/03/08 04:31:08;;;;;;;6.50;5.90;;;;;;;19.35;49.22;97293.50;5053546;28;20221;-27
2024/03/08 04:33:37;;;;;;;6.20;5.67;;;;;;;19.34;48.99;97290.13;5055879;28;20212;-29
2024/03/08 04:36:04;;;;;;;6.13;5.53;;;;;;;19.35;49.17;97293.50;5050503;28;20203;-30
2024/03/08 04:38:31;;;;;;;6.63;6.00;;;;;;;19.37;48.89;97291.91;5055672;28;20275;-27
2024/03/08 04:40:57;;;;;;;6.63;6.03;;;;;;;19.39;48.91;97293.66;5056370;28;20201;-32
2024/03/08 04:43:26;;;;;;;7.33;6.63;;;;;;;19.40;48.73;97294.56;5037352;28;21112;-26
2024/03/08 04:45:53;;;;;;;6.57;5.97;;;;;;;19.41;48.43;97286.94;5020394;28;20197;-27
2024/03/08 04:48:20;;;;;;;7.33;6.63;;;;;;;19.43;48.49;97284.47;5056396;28;20282;-27
2024/03/08 04:50:47;;;;;;;7.10;6.40;;;;;;;19.42;48.86;97281.03;5056156;28;20243;-24
2024/03/08 04:53:14;;;;;;;6.90;6.27;;;;;;;19.44;48.65;97281.97;5035468;28;20208;-31
2024/03/08 04:55:40;;;;;;;7.13;6.43;;;;;;;19.46;48.92;97287.09;5056357;28;20247;-27
2024/03/08 04:58:07;;;;;;;6.43;5.83;;;;;;;19.45;48.62;97276.03;5038421;28;20687;-28
2024/03/08 05:00:34;;;;;;;6.87;6.27;;;;;;;19.47;48.98;97269.31;5053552;28;20197;-27
2024/03/08 05:03:00;;;;;;;7.27;6.57;;;;;;;19.44;48.73;97263.25;5053435;28;20209;-27
2024/03/08 05:05:30;;;;;;;6.33;5.73;;;;;;;19.39;48.53;97268.19;5056136;28;20255;-28
2024/03/08 05:07:56;;;;;;;6.43;5.83;;;;;;;19.37;48.44;97264.75;5055968;28;20256;-27
2024/03/08 05:10:23;;;;;;;8.07;7.27;;;;;;;19.36;48.85;97262.16;5051852;28;20249;-26
2024/03/08 05:12:50;;;;;;;6.73;6.13;;;;;;;19.29;48.96;97248.31;5055390;28;20568;-27
2024/03/08 05:15:20;;;;;;;6.60;6.00;;;;;;;19.36;48.94;97255.34;5055900;28;20562;-28
2024/03/08 05:17:47;;;;;;;7.90;7.07;;;;;;;19.36;49.34;97250.25;5053777;28;20213;-27
2024/03/08 05:20:14;;;;;;;7.13;6.43;;;;;;;19.40;48.84;97253.78;5052880;28;20193;-26
2024/03/08 05:22:40;;;;;;;7.17;6.47;;;;;;;19.41;48.79;97245.31;5055969;28;20193;-27
2024/03/08 05:25:10;;;;;;;6.90;6.20;;;;;;;19.42;48.64;97242.81;5055926;28;20251;-27
2024/03/08 05:27:37;;;;;;;7.07;6.43;;;;;;;19.43;48.65;97238.59;5048227;28;20320;-28
2024/03/08 05:30:04;;;;;;;7.23;6.57;;;;;;;19.45;48.66;97247.16;5056022;28;20225;-27
2024/03/08 05:32:31;;;;;;;6.60;6.00;;;;;;;19.46;48.48;97246.34;5055420;28;20203;-27
2024/03/08 05:34:58;;;;;;;7.07;6.43;;;;;;;19.46;48.44;97241.22;5049452;28;20197;-27
2024/03/08 05:37:25;;;;;;;7.07;6.47;;;;;;;19.46;48.44;97247.22;5054718;28;20260;-26
2024/03/08 05:39:51;;;;;;;6.73;6.10;;;;;;;19.46;48.54;97244.66;5055475;28;20212;-26
2024/03/08 05:42:18;;;;;;;6.47;5.87;;;;;;;19.46;48.90;97246.34;5055063;28;20258;-31
2024/03/08 05:44:44;;;;;;;7.23;6.53;;;;;;;19.41;48.99;97240.22;5054636;28;20204;-28
2024/03/08 05:47:11;;;;;;;7.27;6.57;;;;;;;19.38;48.80;97245.19;5054812;28;20225;-30
2024/03/08 05:49:39;;;;;;;7.67;6.07;;;;;;;19.38;48.85;97247.75;5055664;28;20201;-26
2024/03/08 05:52:05;;;;;;;6.50;5.90;;;;;;;19.37;48.79;97248.56;5049588;28;20197;-25
2024/03/08 05:54:33;;;;;;;7.03;6.37;;;;;;;19.37;48.80;97238.38;5054864;28;20556;-26
2024/03/08 05:56:59;;;;;;;6.50;5.90;;;;;;;19.39;48.74;97236.75;5055112;28;20684;-26
2024/03/08 05:59:26;;;;;;;7.30;6.60;;;;;;;19.42;48.58;97236.88;5054786;28;20251;-26
2024/03/08 06:01:53;;;;;;;6.93;6.33;;;;;;;19.43;48.41;97233.50;5049665;28;20262;-30
2024/03/08 06:04:20;;;;;;;7.33;6.53;;;;;;;19.43;48.99;97234.38;5052754;28;20209;-28
2024/03/08 06:06:46;;;;;;;7.73;6.93;;;;;;;19.46;48.48;97231.91;5036160;28;20310;-26
2024/03/08 06:09:22;;;;;;;8.27;7.47;;;;;;;19.46;48.53;97221.72;5054529;28;20221;-27
2024/03/08 06:11:50;;;;;;;7.10;6.50;;;;;;;19.48;48.35;97232.81;5055598;28;20225;-27
2024/03/08 06:14:18;;;;;;;6.90;6.23;;;;;;;19.50;48.01;97227.75;5046098;28;20208;-35
2024/03/08 06:16:46;;;;;;;7.13;6.43;;;;;;;19.50;48.30;97225.22;5054720;28;20553;-30
2024/03/08 06:19:13;;;;;;;7.20;6.50;;;;;;;19.51;48.17;97226.97;5054723;28;20256;-25
2024/03/08 06:21:40;;;;;;;7.37;6.70;;;;;;;19.48;48.60;97225.16;5043167;28;20193;-30
2024/03/08 06:24:07;;;;;;;7.80;7.00;;;;;;;19.44;48.41;97225.91;5054429;28;20680;-27
2024/03/08 06:26:34;;;;;;;7.10;6.40;;;;;;;19.41;48.13;97223.25;5054604;28;20204;-32
2024/03/08 06:29:06;;;;;;;6.43;5.90;;;;;;;19.39;48.56;97222.31;5054190;28;20216;-35
2024/03/08 06:31:33;;;;;;;7.33;6.63;;;;;;;19.40;48.66;97229.16;5051020;28;20694;-26
2024/03/08 06:34:00;;;;;;;7.47;6.67;;;;;;;19.40;48.58;97229.16;5054784;28;20197;-29
2024/03/08 06:36:28;;;;;;;7.10;6.40;;;;;;;19.41;48.63;97238.53;5054149;28;20509;-26
2024/03/08 06:38:54;;;;;;;7.40;6.63;;;;;;;19.43;48.03;97234.38;5052426;28;20303;-29
2024/03/08 06:41:21;;;;;;;7.63;6.87;;;;;;;19.46;48.42;97233.59;5053640;28;20201;-25
2024/03/08 06:43:48;;;;;;;7.20;6.50;;;;;;;19.47;48.46;97235.31;5054760;28;20201;-26
2024/03/08 06:46:15;;;;;;;6.90;6.30;;;;;;;19.49;48.25;97236.25;5054110;28;20192;-26
2024/03/08 06:48:42;;;;;;;7.57;6.87;;;;;;;19.49;48.31;97234.56;5030906;28;20221;-28
2024/03/08 06:51:10;;;;;;;6.70;6.10;;;;;;;19.49;48.24;97232.03;5050546;28;20282;-26
2024/03/08 06:53:38;;;;;;;7.07;6.40;;;;;;;19.51;47.99;97229.53;5036429;28;20205;-27
2024/03/08 06:56:05;;;;;;;7.60;6.90;;;;;;;19.51;48.36;97225.25;5053702;28;20193;-26
2024/03/08 06:58:32;;;;;;;7.00;6.40;;;;;;;19.52;48.43;97227.03;5046135;28;20241;-26
2024/03/08 07:01:00;;;;;;;7.17;6.47;;;;;;;19.51;48.13;97226.97;5054530;28;20203;-36
2024/03/08 07:03:29;;;;;;;6.93;6.33;;;;;;;19.46;48.44;97219.19;5053651;28;20204;-27
2024/03/08 07:06:02;;;;;;;7.10;6.50;;;;;;;19.42;48.55;97224.97;5054498;28;20228;-31
2024/03/08 07:08:29;;;;;;;7.10;6.40;;;;;;;19.40;48.70;97218.97;5051879;28;20602;-27
2024/03/08 07:10:58;;;;;;;6.87;6.17;;;;;;;19.41;48.63;97223.25;5053754;28;20221;-26
2024/03/08 07:13:25;;;;;;;7.23;6.53;;;;;;;19.42;48.57;97224.13;5054033;28;20205;-26
2024/03/08 07:15:52;;;;;;;7.20;6.50;;;;;;;19.44;48.36;97218.25;5046692;28;20219;-26
2024/03/08 07:18:18;;;;;;;7.23;6.53;;;;;;;19.46;48.15;97214.06;5054224;28;20239;-27
2024/03/08 07:20:45;;;;;;;7.50;6.80;;;;;;;19.49;48.41;97211.63;5051822;28;20220;-27
2024/03/08 07:23:45;;;;;;;8.00;7.20;;;;;;;19.49;48.16;97216.72;5049063;28;20289;-35
2024/03/08 07:26:00;;;;;;;7.57;6.87;;;;;;;19.51;48.07;97224.44;5052971;28;20219;-27
2024/03/08 07:28:27;;;;;;;7.93;7.23;;;;;;;19.52;48.10;97223.59;5054116;28;20275;-26
2024/03/08 07:31:08;;;;;;;7.30;6.60;;;;;;;19.52;48.00;97219.38;5053697;28;20216;-26
2024/03/08 07:33:34;;;;;;;7.90;7.10;;;;;;;19.53;48.19;97217.66;5046638;28;20630;-28
2024/03/08 07:36:01;;;;;;;7.57;6.77;;;;;;;19.53;48.09;97210.91;5054080;28;20192;-29
2024/03/08 07:38:27;;;;;;;7.83;7.03;;;;;;;19.54;48.15;97216.88;5053788;28;20252;-26
2024/03/08 07:40:54;;;;;;;7.03;6.43;;;;;;;19.51;48.04;97212.53;5045791;28;20192;-27
2024/03/08 07:43:22;;;;;;;7.03;6.33;;;;;;;19.46;48.11;97219.19;5054164;28;20709;-28
2024/03/08 07:45:48;;;;;;;7.13;6.47;;;;;;;19.43;48.33;97208.88;5047918;28;20362;-27
2024/03/08 07:48:16;;;;;;;7.33;6.63;;;;;;;19.43;48.29;97216.53;5049014;28;20252;-27
2024/03/08 07:50:43;;;;;;;7.20;6.50;;;;;;;19.42;48.48;97213.94;5053069;28;20298;-26
2024/03/08 07:53:10;;;;;;;8.50;7.33;;;;;;;19.41;48.38;97223.25;5053219;28;20704;-28
2024/03/08 07:55:36;;;;;;;7.67;6.87;;;;;;;19.43;48.55;97226.72;5049957;28;20206;-26
2024/03/08 07:58:03;;;;;;;7.10;6.40;;;;;;;19.46;48.32;97215.75;5049528;28;20256;-27
2024/03/08 08:00:31;;;;;;;7.97;7.17;;;;;;;19.48;48.18;97222.63;5053209;28;20228;-28
2024/03/08 08:02:58;;;;;;;8.83;7.93;;;;;;;19.49;48.14;97214.19;5053012;28;20584;-26
2024/03/08 08:05:26;;;;;;;8.03;7.23;;;;;;;19.51;48.03;97209.13;5047295;28;20650;-27
2024/03/08 08:07:53;;;;;;;7.33;6.60;;;;;;;19.51;47.88;97212.53;5054453;28;20270;-26
2024/03/08 08:10:24;;;;;;;7.77;6.97;;;;;;;19.53;48.01;97215.13;5056993;28;20292;-28
2024/03/08 08:12:52;;;;;;;7.17;6.47;;;;;;;19.54;48.29;97207.53;5046964;28;20197;-27
2024/03/08 08:15:18;;;;;;;7.80;7.10;;;;;;;19.53;48.09;97200.72;5037318;28;20231;-27
2024/03/08 08:17:45;;;;;;;8.53;7.63;;;;;;;19.54;48.39;97201.59;5057105;28;20229;-26
2024/03/08 08:20:13;;;;;;;7.50;6.80;;;;;;;19.53;48.08;97189.63;5056577;28;20478;-26
2024/03/08 08:22:40;;;;;;;7.33;6.63;;;;;;;19.48;48.09;97197.13;5051400;28;20205;-33
2024/03/08 08:25:08;;;;;;;7.83;7.13;;;;;;;19.46;48.38;97190.28;5057231;28;20197;-27
2024/03/08 08:27:36;;;;;;;7.90;7.10;;;;;;;19.42;48.45;97186.75;5056881;28;20766;-29
2024/03/08 08:30:07;;;;;;;7.47;6.77;;;;;;;19.43;48.39;97191.03;5056892;28;20204;-27
2024/03/08 08:32:38;;;;;;;7.80;7.10;;;;;;;19.42;48.51;97179.09;5053879;28;20197;-34
2024/03/08 08:35:06;;;;;;;8.10;7.30;;;;;;;19.44;48.47;97187.66;5056875;28;20193;-28
2024/03/08 08:37:33;;;;;;;8.17;7.47;;;;;;;19.47;48.26;97181.78;5056589;28;20232;-35
2024/03/08 08:40:05;;;;;;;7.60;6.90;;;;;;;19.47;48.27;97172.47;5053743;28;20587;-26
2024/03/08 08:42:32;;;;;;;8.27;7.40;;;;;;;19.51;48.11;97188.75;5056876;28;20231;-26
2024/03/08 08:44:58;;;;;;;8.93;7.37;;;;;;;19.50;47.99;97175.13;5056573;28;20193;-26
2024/03/08 08:47:35;;;;;;;8.23;7.43;;;;;;;19.51;48.14;97174.28;5053095;28;20224;-26
2024/03/08 08:50:04;;;;;;;7.60;6.90;;;;;;;19.54;48.01;97176.94;5056293;28;20211;-26
2024/03/08 08:52:31;;;;;;;7.83;7.13;;;;;;;19.54;47.91;97164.19;5055889;28;20687;-26
2024/03/08 08:54:58;;;;;;;8.57;7.67;;;;;;;19.54;47.86;97164.19;5055997;28;20200;-26
2024/03/08 08:57:26;;;;;;;7.97;7.27;;;;;;;19.51;47.97;97146.25;5053624;28;20312;-27
2024/03/08 08:59:52;;;;;;;8.50;7.60;;;;;;;19.53;47.94;97159.94;5056199;28;20228;-28
2024/03/08 09:02:20;;;;;;;8.37;7.47;;;;;;;19.48;48.18;97153.81;5056103;28;20189;-26
2024/03/08 09:04:50;;;;;;;8.23;7.43;;;;;;;19.45;48.18;97147.78;5052473;28;20275;-26
2024/03/08 09:07:18;;;;;;;8.03;7.17;;;;;;;19.44;48.11;97151.13;5038640;28;20243;-26
2024/03/08 09:09:45;;;;;;;7.43;6.73;;;;;;;19.43;48.65;97145.19;5055967;28;20712;-27
2024/03/08 09:12:14;;;;;;;7.70;7.00;;;;;;;19.36;48.06;97137.28;5055587;28;20642;-33
2024/03/08 09:14:41;;;;;;;8.00;7.20;;;;;;;19.39;48.39;97137.38;5051627;28;20639;-25
2024/03/08 09:17:08;;;;;;;7.50;6.80;;;;;;;19.47;48.22;97144.44;5055638;28;20219;-26
2024/03/08 09:19:36;;;;;;;8.97;8.07;;;;;;;19.50;48.25;97146.22;5055344;28;20205;-27
2024/03/08 09:22:04;;;;;;;8.57;7.67;;;;;;;19.50;48.32;97136.00;5054228;28;20616;-27
2024/03/08 09:24:31;;;;;;;8.87;7.97;;;;;;;19.51;48.03;97138.63;5052451;28;20209;-28
2024/03/08 09:27:00;;;;;;;9.03;8.13;;;;;;;19.52;48.00;97135.28;5048424;28;20193;-26
2024/03/08 09:29:28;;;;;;;7.93;7.07;;;;;;;19.54;47.50;97136.16;5054286;28;20221;-27
2024/03/08 09:31:55;;;;;;;8.63;7.73;;;;;;;19.54;48.12;97131.06;5052181;28;20225;-26
2024/03/08 09:34:21;;;;;;;7.90;7.20;;;;;;;19.54;47.87;97125.97;5055438;28;20197;-26
2024/03/08 09:36:54;;;;;;;8.27;7.47;;;;;;;19.53;48.07;97118.28;5054966;28;20631;-27
2024/03/08 09:39:21;;;;;;;8.73;7.83;;;;;;;19.55;48.26;97122.63;5054559;28;20278;-32
2024/03/08 09:41:50;;;;;;;7.63;6.93;;;;;;;19.49;47.79;97119.00;5049309;28;20204;-27
2024/03/08 09:44:17;;;;;;;8.13;7.33;;;;;;;19.45;48.29;97115.50;5055198;28;20205;-26
2024/03/08 09:46:44;;;;;;;8.33;7.40;;;;;;;19.45;48.40;97112.09;5055162;28;20288;-27
2024/03/08 09:49:11;;;;;;;8.17;7.37;;;;;;;19.43;48.27;97113.72;5036084;28;20711;-27
2024/03/08 09:51:40;;;;;;;8.13;7.33;;;;;;;19.42;48.36;97112.00;5037470;28;20217;-26
2024/03/08 09:54:06;;;;;;;8.67;7.87;;;;;;;19.45;48.25;97112.94;5037623;28;20204;-27
2024/03/08 09:56:44;;;;;;;8.33;7.53;;;;;;;19.46;48.26;97107.03;5053719;28;20262;-26
2024/03/08 10:01:49;;;;;;;7.83;7.03;;;;;;;19.51;48.43;97104.63;5054832;28;20201;-26
2024/03/08 10:04:17;;;;;;;7.67;6.97;;;;;;;19.52;48.26;97101.25;5054437;28;20204;-33
2024/03/08 10:06:44;;;;;;;8.57;7.77;;;;;;;19.51;48.38;97097.00;5051000;28;20683;-28
2024/03/08 10:09:11;;;;;;;8.57;7.60;;;;;;;19.54;48.74;97099.63;5036211;28;20261;-26
2024/03/08 10:11:39;;;;;;;8.43;7.63;;;;;;;19.53;48.04;97093.66;5054379;28;20225;-26
2024/03/08 10:14:06;;;;;;;8.23;7.43;;;;;;;19.53;48.00;97093.66;5019103;28;20201;-26
2024/03/08 10:16:33;;;;;;;8.57;7.67;;;;;;;19.54;48.05;97080.09;5015395;28;20660;-27
2024/03/08 10:19:00;;;;;;;9.20;8.17;;;;;;;19.53;48.08;97082.59;5053857;28;20256;-26
2024/03/08 10:21:28;;;;;;;9.53;6.87;;;;;;;19.48;48.19;97069.72;5054404;28;20197;-26
2024/03/08 10:23:55;;;;;;;8.83;7.60;;;;;;;19.45;48.22;97069.63;5051439;28;20577;-31
2024/03/08 10:26:23;;;;;;;7.73;7.00;;;;;;;19.44;48.27;97075.53;5049583;28;20205;-25
2024/03/08 10:28:51;;;;;;;8.10;7.13;;;;;;;19.44;48.14;97069.56;5054175;28;20659;-30
2024/03/08 10:31:19;;;;;;;7.73;6.93;;;;;;;19.43;48.44;97063.63;5053952;28;20663;-26
2024/03/08 10:33:49;;;;;;;9.10;8.20;;;;;;;19.45;48.38;97063.69;5050666;28;20200;-26
2024/03/08 10:36:16;;;;;;;8.17;7.37;;;;;;;19.47;48.23;97073.09;5054478;28;20229;-29
2024/03/08 10:38:46;;;;;;;7.77;7.07;;;;;;;19.50;48.18;97059.56;5054743;28;20221;-26
2024/03/08 10:41:14;;;;;;;8.20;7.40;;;;;;;19.50;47.79;97070.63;5034987;28;20719;-26
2024/03/08 10:43:47;;;;;;;8.20;7.40;;;;;;;19.52;48.04;97069.00;5034000;28;20209;-26
2024/03/08 10:46:22;;;;;;;8.57;7.67;;;;;;;19.53;48.08;97068.16;5054817;28;20205;-26
2024/03/08 10:48:49;;;;;;;8.93;8.03;;;;;;;19.53;48.10;97057.97;5054416;28;20270;-26
2024/03/08 10:51:16;;;;;;;7.90;7.20;;;;;;;19.54;47.87;97048.66;5035867;28;20268;-26
2024/03/08 10:53:43;;;;;;;8.00;7.20;;;;;;;19.52;48.13;97052.84;5019711;28;20197;-27
2024/03/08 10:56:10;;;;;;;7.80;7.00;;;;;;;19.55;48.26;97048.69;5020830;28;20217;-28
2024/03/08 10:58:37;;;;;;;8.10;7.30;;;;;;;19.46;48.00;97034.81;5051914;28;20658;-26
2024/03/08 11:01:03;;;;;;;7.60;6.90;;;;;;;19.48;48.18;97049.31;5019592;28;20197;-27
2024/03/08 11:03:50;;;;;;;7.80;7.00;;;;;;;19.46;48.32;97042.47;5053849;28;20299;-28
2024/03/08 11:06:30;;;;;;;8.53;7.27;;;;;;;19.46;48.38;97047.56;5046930;28;20193;-26
2024/03/08 11:08:58;;;;;;;7.40;6.70;;;;;;;19.45;48.27;97045.84;5050640;28;20216;-27
2024/03/08 11:11:32;;;;;;;7.53;6.83;;;;;;;19.44;48.44;97034.78;5054040;28;20306;-27
2024/03/08 11:14:01;;;;;;;7.53;6.50;;;;;;;19.46;48.68;97039.91;5053588;28;20223;-26
2024/03/08 11:16:28;;;;;;;7.90;7.13;;;;;;;19.47;48.49;97027.22;5052273;28;20216;-27
2024/03/08 11:19:04;;;;;;;8.17;7.37;;;;;;;19.50;48.18;97021.34;5053311;28;20259;-26
2024/03/08 11:21:33;;;;;;;7.40;6.70;;;;;;;19.51;48.13;97026.47;5037686;28;20211;-31
2024/03/08 11:24:00;;;;;;;7.90;7.20;;;;;;;19.52;48.11;97006.97;5053887;28;20204;-26
2024/03/08 11:26:27;;;;;;;7.27;6.57;;;;;;;19.54;48.10;97003.63;5049004;28;20200;-26
2024/03/08 11:28:55;;;;;;;7.30;6.60;;;;;;;19.54;48.11;96995.13;5048161;28;20244;-28
2024/03/08 11:31:23;;;;;;;7.10;6.40;;;;;;;19.54;48.00;96987.50;5054609;28;20224;-26
2024/03/08 11:33:50;;;;;;;8.07;7.10;;;;;;;19.54;48.28;96983.25;5053469;28;20205;-27
2024/03/08 11:36:24;;;;;;;7.20;6.50;;;;;;;19.55;48.17;96979.00;5050688;28;20197;-26
2024/03/08 11:38:55;;;;;;;6.77;6.17;;;;;;;19.52;48.21;96979.81;5053762;28;20224;-26